Time;durP1;ratioP1;P1;durP2;ratioP2;P2;SDS_P1;SDS_P2;PMS_P1;PMS_P2;Temp;Humidity;BMP_temperature;BMP_pressure;BME280_temperature;BME280_humidity;BME280_pressure;Samples;Min_cycle;Max_cycle;Signal;HPM_P1;HPM_P2
2022/02/08 00:00:12;;;;;;;69.57;8.63;;;;;;;;;;5050746;28;20300;-74
2022/02/08 00:02:50;;;;;;;72.25;9.25;;;;;;;;;;5051319;28;20205;-74
2022/02/08 00:05:22;;;;;;;75.95;8.95;;;;;;;;;;5051178;28;20217;-74
2022/02/08 00:07:55;;;;;;;66.47;7.75;;;;;;;;;;5050588;28;20211;-73
2022/02/08 00:10:26;;;;;;;67.93;7.47;;;;;;;;;;5052054;28;20209;-73
2022/02/08 00:12:57;;;;;;;73.63;8.30;;;;;;;;;;5054585;28;20238;-73
2022/02/08 00:15:33;;;;;;;63.13;7.10;;;;;;;;;;5055167;28;20256;-73
2022/02/08 00:18:07;;;;;;;63.47;6.55;;;;;;;;;;5055099;28;20229;-73
2022/02/08 00:20:37;;;;;;;68.07;7.88;;;;;;;;;;5054761;28;20206;-72
2022/02/08 00:23:08;;;;;;;64.47;6.95;;;;;;;;;;5060547;28;20229;-73
2022/02/08 00:25:38;;;;;;;65.85;6.30;;;;;;;;;;5074719;28;20290;-73
2022/02/08 00:28:08;;;;;;;65.50;6.50;;;;;;;;;;5074531;28;20202;-73
2022/02/08 00:30:41;;;;;;;66.82;6.28;;;;;;;;;;5074936;28;20206;-73
2022/02/08 00:33:19;;;;;;;62.72;6.35;;;;;;;;;;5073481;28;20228;-74
2022/02/08 00:35:51;;;;;;;66.88;7.25;;;;;;;;;;5074838;28;20300;-74
2022/02/08 00:38:25;;;;;;;63.42;7.15;;;;;;;;;;5074312;28;20753;-74
2022/02/08 00:40:58;;;;;;;63.22;5.47;;;;;;;;;;5074557;28;20209;-72
2022/02/08 00:43:33;;;;;;;63.08;6.22;;;;;;;;;;5074600;28;20757;-74
2022/02/08 00:46:13;;;;;;;63.42;6.03;;;;;;;;;;5074107;28;20216;-73
2022/02/08 00:48:54;;;;;;;60.70;5.82;;;;;;;;;;5073837;28;20251;-74
2022/02/08 00:51:38;;;;;;;63.50;5.47;;;;;;;;;;5074442;28;20216;-74
2022/02/08 00:54:07;;;;;;;69.60;5.70;;;;;;;;;;5071665;28;20729;-75
2022/02/08 00:56:50;;;;;;;67.80;5.43;;;;;;;;;;5053979;28;20267;-74
2022/02/08 00:59:19;;;;;;;62.47;6.30;;;;;;;;;;5054148;28;20237;-75
2022/02/08 01:01:53;;;;;;;63.38;6.88;;;;;;;;;;5054174;28;20206;-72
2022/02/08 01:04:24;;;;;;;65.13;5.97;;;;;;;;;;5054188;28;20230;-73
2022/02/08 01:06:54;;;;;;;65.90;5.82;;;;;;;;;;5053963;28;20249;-74
2022/02/08 01:09:35;;;;;;;61.85;4.72;;;;;;;;;;5053542;28;20208;-72
2022/02/08 01:14:54;;;;;;;65.13;5.13;;;;;;;;;;5053229;28;20224;-73
2022/02/08 01:17:35;;;;;;;61.22;5.32;;;;;;;;;;5052970;28;20256;-73
2022/02/08 01:20:12;;;;;;;70.50;5.50;;;;;;;;;;5053965;28;20199;-73
2022/02/08 01:22:49;;;;;;;64.85;6.03;;;;;;;;;;5052723;28;20217;-74
2022/02/08 01:25:27;;;;;;;62.05;5.65;;;;;;;;;;5053429;28;20217;-72
2022/02/08 01:28:05;;;;;;;67.63;4.93;;;;;;;;;;5051488;28;20217;-73
2022/02/08 01:30:45;;;;;;;64.47;5.43;;;;;;;;;;5053724;28;20241;-73
2022/02/08 01:36:32;;;;;;;63.35;6.05;;;;;;;;;;5150399;27;20466;-72
2022/02/08 01:39:11;;;;;;;65.72;4.93;;;;;;;;;;5129677;27;20238;-72
2022/02/08 01:41:58;;;;;;;66.43;5.18;;;;;;;;;;5129861;27;20290;-73
2022/02/08 01:44:33;;;;;;;63.22;4.47;;;;;;;;;;5115197;27;20231;-73
2022/02/08 01:47:13;;;;;;;68.18;4.85;;;;;;;;;;5109090;28;20246;-74
2022/02/08 01:52:46;;;;;;;63.33;4.50;;;;;;;;;;5130325;27;20533;-72
2022/02/08 01:55:30;;;;;;;62.10;5.03;;;;;;;;;;5088700;28;20742;-72
2022/02/08 01:57:59;;;;;;;63.20;5.60;;;;;;;;;;5088460;28;20681;-72
2022/02/08 02:00:29;;;;;;;75.82;9.35;;;;;;;;;;5088484;28;20579;-72
2022/02/08 02:03:01;;;;;;;63.05;5.68;;;;;;;;;;5089023;28;20699;-72
2022/02/08 02:05:53;;;;;;;64.28;6.13;;;;;;;;;;5088974;28;20347;-73
2022/02/08 02:08:29;;;;;;;66.95;6.85;;;;;;;;;;5089040;28;20665;-73
2022/02/08 02:11:08;;;;;;;66.65;6.90;;;;;;;;;;5089036;28;20659;-73
2022/02/08 02:13:46;;;;;;;63.78;6.05;;;;;;;;;;5088915;28;20220;-73
2022/02/08 02:16:21;;;;;;;61.10;5.15;;;;;;;;;;5088874;28;20543;-72
2022/02/08 02:18:50;;;;;;;61.70;5.18;;;;;;;;;;5088339;28;20208;-72
2022/02/08 02:21:25;;;;;;;68.68;5.43;;;;;;;;;;5088696;28;20585;-72
2022/02/08 02:24:02;;;;;;;62.20;5.25;;;;;;;;;;5088761;28;20576;-73
2022/02/08 02:26:34;;;;;;;62.72;5.60;;;;;;;;;;5088622;28;20643;-73
2022/02/08 02:29:03;;;;;;;62.80;5.63;;;;;;;;;;5088391;28;20209;-73
2022/02/08 02:31:33;;;;;;;61.17;5.28;;;;;;;;;;5088588;28;20600;-72
2022/02/08 02:34:03;;;;;;;66.00;5.55;;;;;;;;;;5088195;28;20229;-72
2022/02/08 02:36:35;;;;;;;61.63;5.45;;;;;;;;;;5087844;28;20209;-73
2022/02/08 02:39:08;;;;;;;63.50;5.38;;;;;;;;;;5088142;28;20227;-73
2022/02/08 02:41:38;;;;;;;62.28;5.85;;;;;;;;;;5088496;28;20201;-73
2022/02/08 02:44:10;;;;;;;70.22;5.65;;;;;;;;;;5086820;28;20221;-73
2022/02/08 02:46:40;;;;;;;63.40;4.47;;;;;;;;;;5088266;28;20208;-74
2022/02/08 02:49:13;;;;;;;60.15;4.50;;;;;;;;;;5088188;28;20205;-75
2022/02/08 02:51:45;;;;;;;65.75;3.88;;;;;;;;;;5088096;28;20229;-74
2022/02/08 02:54:23;;;;;;;61.58;4.00;;;;;;;;;;5088021;28;20225;-73
2022/02/08 02:56:58;;;;;;;59.30;3.70;;;;;;;;;;5088114;28;20205;-73
2022/02/08 02:59:31;;;;;;;61.05;3.92;;;;;;;;;;5088214;28;20236;-73
2022/02/08 03:05:05;;;;;;;59.90;3.10;;;;;;;;;;5049459;28;20218;-73
2022/02/08 03:18:50;;;;;;;58.75;3.53;;;;;;;;;;5074028;28;20235;-73
2022/02/08 03:21:24;;;;;;;61.95;3.70;;;;;;;;;;5074409;28;20197;-73
2022/02/08 03:23:55;;;;;;;60.45;3.90;;;;;;;;;;5073962;28;20235;-73
2022/02/08 03:26:27;;;;;;;62.85;3.90;;;;;;;;;;5074601;28;20301;-72
2022/02/08 03:28:59;;;;;;;61.15;3.65;;;;;;;;;;5074109;28;20209;-73
2022/02/08 03:31:34;;;;;;;59.95;3.97;;;;;;;;;;5073755;28;20225;-73
2022/02/08 03:34:07;;;;;;;66.22;3.75;;;;;;;;;;5073914;28;20648;-73
2022/02/08 03:36:50;;;;;;;60.20;4.10;;;;;;;;;;5073952;28;20217;-72
2022/02/08 03:39:32;;;;;;;60.38;3.63;;;;;;;;;;5073779;28;20690;-72
2022/02/08 03:42:17;;;;;;;61.97;3.97;;;;;;;;;;5073811;28;20217;-73
2022/02/08 03:44:48;;;;;;;59.75;3.95;;;;;;;;;;5073561;28;20233;-73
2022/02/08 03:47:21;;;;;;;61.08;3.90;;;;;;;;;;5073119;28;20206;-72
2022/02/08 03:50:15;;;;;;;59.65;3.70;;;;;;;;;;5073237;28;20349;-73
2022/02/08 03:52:47;;;;;;;64.00;3.47;;;;;;;;;;5073562;28;20237;-73
2022/02/08 03:55:18;;;;;;;60.13;3.63;;;;;;;;;;5073540;28;20208;-72
2022/02/08 03:57:49;;;;;;;62.50;3.25;;;;;;;;;;5073080;28;20202;-73
2022/02/08 04:00:25;;;;;;;60.08;3.35;;;;;;;;;;5073851;28;20288;-73
2022/02/08 04:02:57;;;;;;;60.88;4.28;;;;;;;;;;5073285;28;20244;-73
2022/02/08 04:05:30;;;;;;;58.80;3.35;;;;;;;;;;5073327;28;20396;-73
2022/02/08 04:08:05;;;;;;;65.53;3.78;;;;;;;;;;5072936;28;20210;-73
2022/02/08 04:10:35;;;;;;;69.80;4.00;;;;;;;;;;5073411;28;20209;-73
2022/02/08 04:13:12;;;;;;;58.38;3.63;;;;;;;;;;5073057;28;20368;-73
2022/02/08 04:15:58;;;;;;;58.88;3.17;;;;;;;;;;5072276;28;20701;-73
2022/02/08 04:32:40;;;;;;;61.22;3.38;;;;;;;;;;5072695;28;20224;-73
2022/02/08 04:38:27;;;;;;;65.65;4.75;;;;;;;;;;5061530;28;20666;-74
2022/02/08 04:41:05;;;;;;;60.08;3.28;;;;;;;;;;5072775;28;20567;-73
2022/02/08 04:43:42;;;;;;;63.25;3.80;;;;;;;;;;5072476;28;20713;-73
2022/02/08 04:46:27;;;;;;;63.88;3.50;;;;;;;;;;5072818;28;20651;-73
2022/02/08 04:49:03;;;;;;;60.95;3.83;;;;;;;;;;5072196;28;20201;-73
2022/02/08 04:51:38;;;;;;;59.28;3.42;;;;;;;;;;5071953;28;20286;-73
2022/02/08 04:54:17;;;;;;;59.33;3.13;;;;;;;;;;5072316;28;20347;-72
2022/02/08 05:00:06;;;;;;;63.30;3.53;;;;;;;;;;5071976;28;20688;-73
2022/02/08 05:42:09;;;;;;;59.10;3.53;;;;;;;;;;5072004;28;20267;-73
2022/02/08 05:44:45;;;;;;;59.42;3.88;;;;;;;;;;5071572;28;20308;-73
2022/02/08 05:47:15;;;;;;;63.88;4.15;;;;;;;;;;5071806;28;20216;-73
2022/02/08 05:49:52;;;;;;;69.75;4.20;;;;;;;;;;5071716;28;20212;-73
2022/02/08 05:52:44;;;;;;;60.75;4.13;;;;;;;;;;5071057;28;20804;-73
2022/02/08 05:55:15;;;;;;;58.60;3.40;;;;;;;;;;5071786;28;20700;-72
2022/02/08 05:57:45;;;;;;;61.10;3.67;;;;;;;;;;5071544;28;20263;-73
2022/02/08 06:00:15;;;;;;;58.90;3.13;;;;;;;;;;5071537;28;20215;-74
2022/02/08 06:02:49;;;;;;;61.15;3.35;;;;;;;;;;5069249;28;20292;-74
2022/02/08 06:05:20;;;;;;;62.35;3.40;;;;;;;;;;5071651;28;20601;-74
2022/02/08 06:07:53;;;;;;;63.63;3.70;;;;;;;;;;5071393;28;20194;-74
2022/02/08 06:10:24;;;;;;;62.30;4.10;;;;;;;;;;5071060;28;20263;-73
2022/02/08 06:13:02;;;;;;;58.97;3.35;;;;;;;;;;5071714;28;20317;-74
2022/02/08 06:15:34;;;;;;;58.90;3.28;;;;;;;;;;5070977;28;20248;-74
2022/02/08 06:18:06;;;;;;;60.65;3.53;;;;;;;;;;5071317;28;20235;-74
2022/02/08 06:20:35;;;;;;;59.75;3.40;;;;;;;;;;5071432;28;20211;-75
2022/02/08 06:23:07;;;;;;;60.90;3.60;;;;;;;;;;5071146;28;20209;-74
2022/02/08 06:25:36;;;;;;;62.42;3.65;;;;;;;;;;5071267;28;20210;-74
2022/02/08 06:28:21;;;;;;;61.50;3.67;;;;;;;;;;5071061;28;20209;-74
2022/02/08 06:30:51;;;;;;;62.70;4.00;;;;;;;;;;5071257;28;20719;-74
2022/02/08 06:33:23;;;;;;;62.38;3.90;;;;;;;;;;5071042;28;20261;-74
2022/02/08 06:35:58;;;;;;;60.55;3.92;;;;;;;;;;5070828;28;20605;-75
2022/02/08 06:38:35;;;;;;;65.53;3.67;;;;;;;;;;5073332;28;20587;-75
2022/02/08 06:41:09;;;;;;;60.53;3.42;;;;;;;;;;5074974;28;20700;-75
2022/02/08 06:43:38;;;;;;;63.85;3.67;;;;;;;;;;5074597;28;20308;-75
2022/02/08 06:46:13;;;;;;;63.85;3.75;;;;;;;;;;5075495;28;20591;-75
2022/02/08 06:48:45;;;;;;;61.42;3.60;;;;;;;;;;5074697;28;20689;-75
2022/02/08 06:51:15;;;;;;;61.05;3.83;;;;;;;;;;5074803;28;20627;-75
2022/02/08 06:53:49;;;;;;;64.38;3.90;;;;;;;;;;5074490;28;20732;-76
2022/02/08 06:56:23;;;;;;;61.75;3.50;;;;;;;;;;5074897;28;20602;-75
2022/02/08 06:59:03;;;;;;;60.00;4.13;;;;;;;;;;5074534;28;20747;-75
2022/02/08 07:01:35;;;;;;;64.47;3.42;;;;;;;;;;5074523;28;20631;-75
2022/02/08 07:04:21;;;;;;;;;;;;;;;;;;;;;
2022/02/08 07:06:51;;;;;;;60.30;3.05;;;;;;;;;;5074267;28;20216;-74
2022/02/08 07:09:25;;;;;;;60.15;3.25;;;;;;;;;;5074613;28;20578;-74
2022/02/08 07:11:57;;;;;;;65.68;4.00;;;;;;;;;;5074152;28;20604;-75
2022/02/08 07:14:32;;;;;;;62.60;4.35;;;;;;;;;;5074323;28;20225;-75
2022/02/08 07:17:08;;;;;;;61.10;3.55;;;;;;;;;;5074480;28;20300;-75
2022/02/08 07:19:42;;;;;;;58.92;3.28;;;;;;;;;;5074232;28;20587;-76
2022/02/08 07:22:31;;;;;;;68.32;4.63;;;;;;;;;;5074417;28;20204;-75
2022/02/08 07:25:03;;;;;;;61.20;3.78;;;;;;;;;;5073937;28;20605;-75
2022/02/08 07:27:37;;;;;;;61.88;3.40;;;;;;;;;;5074169;28;20201;-75
2022/02/08 07:30:10;;;;;;;61.95;3.40;;;;;;;;;;5074057;28;20213;-74
2022/02/08 07:32:47;;;;;;;69.78;4.25;;;;;;;;;;5073803;28;20717;-75
2022/02/08 07:35:30;;;;;;;60.75;3.75;;;;;;;;;;5074198;28;20213;-74
2022/02/08 07:38:20;;;;;;;60.03;3.80;;;;;;;;;;5073806;28;20208;-74
2022/02/08 07:43:49;;;;;;;60.53;4.00;;;;;;;;;;5073991;28;20310;-74
2022/02/08 07:46:22;;;;;;;62.22;4.00;;;;;;;;;;5073966;28;20212;-75
2022/02/08 07:51:36;;;;;;;62.65;3.40;;;;;;;;;;5072756;28;20256;-74
2022/02/08 07:54:11;;;;;;;64.55;4.35;;;;;;;;;;5073844;28;20253;-74
2022/02/08 07:56:43;;;;;;;63.58;3.58;;;;;;;;;;5096075;28;20200;-75
2022/02/08 07:59:18;;;;;;;63.90;3.50;;;;;;;;;;5097455;28;20198;-74
2022/02/08 08:01:47;;;;;;;63.33;3.83;;;;;;;;;;5097028;28;20266;-74
2022/02/08 08:04:17;;;;;;;60.65;4.35;;;;;;;;;;5097292;28;20288;-75
2022/02/08 08:06:49;;;;;;;61.47;3.25;;;;;;;;;;5097311;28;20233;-74
2022/02/08 08:09:19;;;;;;;59.53;3.28;;;;;;;;;;5094268;28;20212;-74
2022/02/08 08:11:52;;;;;;;61.50;3.53;;;;;;;;;;5075979;28;20670;-73
2022/02/08 08:14:27;;;;;;;61.30;3.55;;;;;;;;;;5073129;28;20717;-73
2022/02/08 08:17:02;;;;;;;60.55;3.10;;;;;;;;;;5073647;28;20240;-74
2022/02/08 08:19:47;;;;;;;64.47;3.88;;;;;;;;;;5072676;28;20205;-73
2022/02/08 08:22:25;;;;;;;59.85;3.60;;;;;;;;;;5073097;28;20197;-74
2022/02/08 08:24:58;;;;;;;63.58;4.05;;;;;;;;;;5072986;28;20233;-73
2022/02/08 08:27:31;;;;;;;61.30;3.78;;;;;;;;;;5072667;28;20205;-74
2022/02/08 08:30:20;;;;;;;62.22;3.83;;;;;;;;;;5072906;28;20216;-73
2022/02/08 08:32:50;;;;;;;63.95;3.60;;;;;;;;;;5072609;28;20225;-74
2022/02/08 08:35:22;;;;;;;62.70;3.60;;;;;;;;;;5072724;28;20222;-73
2022/02/08 08:38:03;;;;;;;63.60;3.88;;;;;;;;;;5072923;28;20209;-73
2022/02/08 08:40:49;;;;;;;61.20;3.67;;;;;;;;;;5072320;28;20731;-73
2022/02/08 08:49:23;;;;;;;68.10;4.38;;;;;;;;;;5072451;28;20197;-74
2022/02/08 08:51:57;;;;;;;62.63;3.38;;;;;;;;;;5072449;28;20213;-73
2022/02/08 08:54:27;;;;;;;62.33;3.63;;;;;;;;;;5072089;28;20226;-73
2022/02/08 08:57:02;;;;;;;65.22;4.38;;;;;;;;;;5072283;28;20216;-73
2022/02/08 08:59:45;;;;;;;61.35;3.45;;;;;;;;;;5072008;28;20209;-72
2022/02/08 09:02:24;;;;;;;60.28;3.45;;;;;;;;;;5072143;28;20648;-72
2022/02/08 09:04:55;;;;;;;62.23;3.23;;;;;;;;;;5072171;28;20290;-74
2022/02/08 09:07:27;;;;;;;62.88;4.03;;;;;;;;;;5072141;28;20452;-73
2022/02/08 09:10:02;;;;;;;60.42;3.60;;;;;;;;;;5072126;28;20205;-72
2022/02/08 09:15:47;;;;;;;61.47;3.63;;;;;;;;;;5061103;28;20197;-73
2022/02/08 09:21:23;;;;;;;59.60;3.90;;;;;;;;;;5072073;28;20415;-74
2022/02/08 09:29:40;;;;;;;61.90;4.30;;;;;;;;;;5066626;28;20955;-73
2022/02/08 09:32:27;;;;;;;63.97;3.83;;;;;;;;;;5071758;28;20451;-73
2022/02/08 09:34:59;;;;;;;61.60;3.90;;;;;;;;;;5071641;28;20479;-73
2022/02/08 09:37:33;;;;;;;62.20;3.87;;;;;;;;;;5071555;28;20455;-73
2022/02/08 09:40:06;;;;;;;62.00;3.87;;;;;;;;;;5071675;28;20955;-73
2022/02/08 09:42:44;;;;;;;67.27;3.90;;;;;;;;;;5071858;28;20442;-75
2022/02/08 09:45:18;;;;;;;64.87;3.90;;;;;;;;;;5071775;28;20458;-73
2022/02/08 09:47:57;;;;;;;62.63;3.50;;;;;;;;;;5071520;28;20448;-74
2022/02/08 09:50:28;;;;;;;68.63;3.70;;;;;;;;;;5071096;28;20461;-74
2022/02/08 09:53:00;;;;;;;62.53;3.33;;;;;;;;;;5071531;28;20545;-74
2022/02/08 09:55:29;;;;;;;61.40;3.17;;;;;;;;;;5071704;28;20448;-74
2022/02/08 09:58:00;;;;;;;59.00;3.23;;;;;;;;;;5071209;28;20458;-72
2022/02/08 10:00:34;;;;;;;60.27;3.53;;;;;;;;;;5071273;28;20459;-72
2022/02/08 10:03:17;;;;;;;63.20;3.67;;;;;;;;;;5071484;28;20493;-72
2022/02/08 10:05:47;;;;;;;61.40;3.53;;;;;;;;;;5071507;28;20508;-73
2022/02/08 10:08:20;;;;;;;67.27;3.87;;;;;;;;;;5071107;28;20452;-73
2022/02/08 10:10:59;;;;;;;63.67;3.60;;;;;;;;;;5071101;28;20451;-74
2022/02/08 10:13:43;;;;;;;63.67;4.13;;;;;;;;;;5073893;28;20499;-74
2022/02/08 10:21:55;;;;;;;62.40;3.60;;;;;;;;;;5036532;28;20507;-75
2022/02/08 10:24:26;;;;;;;59.70;3.33;;;;;;;;;;5075117;28;20466;-75
2022/02/08 10:27:03;;;;;;;59.67;3.10;;;;;;;;;;5075138;28;20450;-74
2022/02/08 10:29:42;;;;;;;63.80;4.03;;;;;;;;;;5075256;28;20443;-73
2022/02/08 10:37:35;;;;;;;63.20;3.93;;;;;;;;;;5075180;28;20462;-73
2022/02/08 10:38:08;;;;;;;60.73;3.67;;;;;;;;;;5074798;28;20517;-73
2022/02/08 10:40:40;;;;;;;61.60;3.57;;;;;;;;;;5075093;28;20446;-73
2022/02/08 10:43:18;;;;;;;59.43;3.20;;;;;;;;;;5073956;28;20554;-73
2022/02/08 10:45:49;;;;;;;61.13;3.23;;;;;;;;;;5074336;28;20531;-73
2022/02/08 10:48:25;;;;;;;67.30;3.67;;;;;;;;;;5074836;28;20443;-73
2022/02/08 10:51:05;;;;;;;61.50;3.57;;;;;;;;;;5074328;28;20546;-74
2022/02/08 10:53:54;;;;;;;62.50;3.10;;;;;;;;;;5074448;28;21014;-73
2022/02/08 10:56:30;;;;;;;61.70;3.43;;;;;;;;;;5074685;28;20838;-73
2022/02/08 10:59:13;;;;;;;61.20;3.53;;;;;;;;;;5074344;28;20450;-73
2022/02/08 11:02:00;;;;;;;63.67;3.40;;;;;;;;;;5074376;28;20539;-73
2022/02/08 11:04:45;;;;;;;59.13;3.30;;;;;;;;;;5073870;28;20463;-72
2022/02/08 11:07:29;;;;;;;63.50;3.57;;;;;;;;;;5073875;28;20455;-73
2022/02/08 11:10:13;;;;;;;61.30;3.70;;;;;;;;;;5074493;28;20448;-73
2022/02/08 11:12:55;;;;;;;62.47;3.50;;;;;;;;;;5073562;28;20531;-73
2022/02/08 11:15:32;;;;;;;59.50;3.37;;;;;;;;;;5074378;28;20870;-72
2022/02/08 11:18:24;;;;;;;62.57;3.47;;;;;;;;;;5072447;28;20443;-74
2022/02/08 11:21:19;;;;;;;60.30;2.80;;;;;;;;;;5073987;28;20817;-73
2022/02/08 11:24:01;;;;;;;67.60;3.90;;;;;;;;;;5073354;28;20960;-73
2022/02/08 11:26:40;;;;;;;60.27;3.33;;;;;;;;;;5074376;28;20941;-73
2022/02/08 11:29:34;;;;;;;61.07;3.17;;;;;;;;;;5073890;28;20444;-73
2022/02/08 11:32:13;;;;;;;60.47;3.37;;;;;;;;;;5073857;28;20822;-74
2022/02/08 11:43:42;;;;;;;61.00;3.60;;;;;;;;;;5074172;28;20447;-73
2022/02/08 11:46:30;;;;;;;59.40;2.90;;;;;;;;;;5073813;28;20443;-73
2022/02/08 11:51:57;;;;;;;61.80;3.90;;;;;;;;;;5065980;28;20463;-73
2022/02/08 11:54:43;;;;;;;62.17;3.30;;;;;;;;;;5073386;28;20491;-73
2022/02/08 12:00:17;;;;;;;66.43;3.90;;;;;;;;;;5073913;28;20423;-73
2022/02/08 12:03:00;;;;;;;64.77;3.60;;;;;;;;;;5073308;28;20450;-73
2022/02/08 12:06:03;;;;;;;59.57;3.17;;;;;;;;;;5073481;28;20501;-73
2022/02/08 12:08:37;;;;;;;58.87;3.00;;;;;;;;;;5073135;28;20443;-73
2022/02/08 12:11:31;;;;;;;58.90;3.03;;;;;;;;;;5073011;28;20535;-73
2022/02/08 12:31:40;;;;;;;58.40;2.70;;;;;;;;;;5048194;28;20427;-73
2022/02/08 12:34:40;;;;;;;59.27;3.03;;;;;;;;;;5072495;28;20524;-73
2022/02/08 12:48:47;;;;;;;60.60;2.97;;;;;;;;;;5072700;28;20434;-74
2022/02/08 12:54:23;;;;;;;60.50;3.30;;;;;;;;;;5072443;28;20474;-74
2022/02/08 12:57:03;;;;;;;58.67;3.07;;;;;;;;;;5072517;28;20542;-73
2022/02/08 13:02:37;;;;;;;59.00;2.70;;;;;;;;;;5064948;28;20440;-73
2022/02/08 14:01:52;;;;;;;58.00;2.70;;;;;;;;;;5060356;28;20832;-70
2022/02/08 14:07:17;;;;;;;62.37;2.80;;;;;;;;;;5071372;28;20439;-70
2022/02/08 14:10:14;;;;;;;58.07;2.70;;;;;;;;;;5071347;28;20923;-70
2022/02/08 14:13:31;;;;;;;58.40;2.73;;;;;;;;;;5071345;28;20506;-70
2022/02/08 14:19:04;;;;;;;59.07;2.70;;;;;;;;;;5071326;28;20440;-70
2022/02/08 14:21:41;;;;;;;61.40;2.90;;;;;;;;;;5071665;28;21002;-71
2022/02/08 14:24:20;;;;;;;57.77;2.40;;;;;;;;;;5070851;28;20460;-71
2022/02/08 14:29:49;;;;;;;69.10;3.30;;;;;;;;;;5071476;28;20836;-71
2022/02/08 14:32:24;;;;;;;64.33;3.00;;;;;;;;;;5070649;28;20444;-71
2022/02/08 14:58:05;;;;;;;58.40;2.80;;;;;;;;;;5028407;28;20464;-72
2022/02/08 15:05:25;;;;;;;58.27;2.90;;;;;;;;;;5032391;28;20476;-72
2022/02/08 15:06:53;;;;;;;58.90;3.17;;;;;;;;;;5032403;28;20515;-70
2022/02/08 15:09:29;;;;;;;60.30;3.03;;;;;;;;;;5032165;28;20496;-72
2022/02/08 15:12:08;;;;;;;59.77;3.20;;;;;;;;;;5032382;28;20449;-69
2022/02/08 15:14:45;;;;;;;59.03;3.20;;;;;;;;;;5031359;28;20485;-71
2022/02/08 15:17:18;;;;;;;59.63;3.27;;;;;;;;;;5031423;28;20964;-71
2022/02/08 15:19:50;;;;;;;58.87;2.90;;;;;;;;;;5031866;28;20453;-71
2022/02/08 15:22:20;;;;;;;60.70;3.40;;;;;;;;;;5045562;28;20543;-71
2022/02/08 15:24:57;;;;;;;58.90;3.13;;;;;;;;;;5074267;28;20463;-71
2022/02/08 15:27:29;;;;;;;59.00;2.83;;;;;;;;;;5074045;28;20451;-71
2022/02/08 15:30:02;;;;;;;60.87;3.23;;;;;;;;;;5074688;28;20454;-71
2022/02/08 15:32:34;;;;;;;59.07;3.20;;;;;;;;;;5074085;28;20452;-70
2022/02/08 15:35:12;;;;;;;58.80;3.07;;;;;;;;;;5074230;28;20503;-71
2022/02/08 15:37:49;;;;;;;60.00;3.20;;;;;;;;;;5073895;28;20454;-71
2022/02/08 15:40:21;;;;;;;58.07;2.70;;;;;;;;;;5074262;28;20451;-72
2022/02/08 15:42:57;;;;;;;60.57;3.80;;;;;;;;;;5073638;28;20454;-71
2022/02/08 15:45:39;;;;;;;58.50;3.00;;;;;;;;;;5073864;28;20457;-71
2022/02/08 15:48:12;;;;;;;62.20;3.20;;;;;;;;;;5073605;28;20474;-72
2022/02/08 15:50:55;;;;;;;59.67;2.80;;;;;;;;;;5073889;28;20462;-71
2022/02/08 15:53:49;;;;;;;58.70;3.00;;;;;;;;;;5073650;28;20472;-71
2022/02/08 16:07:48;;;;;;;59.90;3.00;;;;;;;;;;5073368;28;20465;-72
2022/02/08 16:10:25;;;;;;;58.67;2.90;;;;;;;;;;5073168;28;20487;-72
2022/02/08 16:13:15;;;;;;;58.60;3.10;;;;;;;;;;5072877;28;20809;-72
2022/02/08 16:16:09;;;;;;;59.27;2.87;;;;;;;;;;5073234;28;20570;-71
2022/02/08 16:18:47;;;;;;;59.37;3.30;;;;;;;;;;5072737;28;20494;-71
2022/02/08 16:21:41;;;;;;;58.10;3.00;;;;;;;;;;5073071;28;20444;-72
2022/02/08 16:24:33;;;;;;;59.67;3.10;;;;;;;;;;5072993;28;20546;-72
2022/02/08 16:27:17;;;;;;;58.50;2.77;;;;;;;;;;5073106;28;20469;-71
2022/02/08 16:30:36;;;;;;;58.53;3.07;;;;;;;;;;5073031;28;20452;-72
2022/02/08 16:50:00;;;;;;;62.60;3.40;;;;;;;;;;5073624;28;20428;-71
2022/02/08 16:55:43;;;;;;;58.67;3.40;;;;;;;;;;5057916;28;20509;-72
2022/02/08 16:58:35;;;;;;;62.90;3.70;;;;;;;;;;5096026;28;20531;-72
2022/02/08 17:01:13;;;;;;;60.20;4.53;;;;;;;;;;5095407;28;20474;-71
2022/02/08 17:03:49;;;;;;;62.27;4.80;;;;;;;;;;5089605;28;20975;-71
2022/02/08 17:06:21;;;;;;;59.87;3.53;;;;;;;;;;5072054;28;20630;-70
2022/02/08 17:09:03;;;;;;;59.13;3.23;;;;;;;;;;5071942;28;20813;-70
2022/02/08 17:11:44;;;;;;;59.00;3.03;;;;;;;;;;5072212;28;20451;-70
2022/02/08 17:14:34;;;;;;;59.57;3.70;;;;;;;;;;5071590;28;20918;-70
2022/02/08 17:45:42;;;;;;;60.00;3.10;;;;;;;;;;5071753;28;20485;-72
2022/02/08 17:48:16;;;;;;;61.00;3.07;;;;;;;;;;5071198;28;20448;-72
2022/02/08 17:50:47;;;;;;;59.50;2.90;;;;;;;;;;5071453;28;20459;-72
2022/02/08 17:53:22;;;;;;;62.03;3.20;;;;;;;;;;5071780;28;21040;-72
2022/02/08 17:55:51;;;;;;;62.50;3.20;;;;;;;;;;5071809;28;20922;-72
2022/02/08 17:58:21;;;;;;;61.00;3.23;;;;;;;;;;5075375;28;20452;-72
2022/02/08 18:00:54;;;;;;;62.77;4.03;;;;;;;;;;5084101;28;20534;-72
2022/02/08 18:03:25;;;;;;;60.97;3.17;;;;;;;;;;5083828;28;20468;-72
2022/02/08 18:05:58;;;;;;;59.87;3.13;;;;;;;;;;5084092;28;20450;-72
2022/02/08 18:08:28;;;;;;;62.67;3.63;;;;;;;;;;5083758;28;20448;-71
2022/02/08 18:11:00;;;;;;;59.57;3.27;;;;;;;;;;5083330;28;20505;-72
2022/02/08 18:13:42;;;;;;;60.90;4.50;;;;;;;;;;5071765;28;20460;-71
2022/02/08 18:16:15;;;;;;;61.60;4.80;;;;;;;;;;5071915;28;21025;-71
2022/02/08 18:18:48;;;;;;;61.60;4.20;;;;;;;;;;5071217;28;20483;-71
2022/02/08 18:21:26;;;;;;;62.77;4.20;;;;;;;;;;5071574;28;20509;-71
2022/02/08 18:58:03;;;;;;;64.00;5.00;;;;;;;;;;5063181;28;20438;-71
2022/02/08 19:09:10;;;;;;;61.30;4.43;;;;;;;;;;5074538;28;20461;-71
2022/02/08 19:11:59;;;;;;;63.87;5.00;;;;;;;;;;5074636;28;20444;-71
2022/02/08 19:17:52;;;;;;;61.70;4.00;;;;;;;;;;5150556;27;20520;-70
2022/02/08 19:20:29;;;;;;;62.00;4.73;;;;;;;;;;5130289;27;20500;-70
2022/02/08 19:23:06;;;;;;;61.00;4.00;;;;;;;;;;5128476;27;20501;-70
2022/02/08 19:25:36;;;;;;;64.83;4.00;;;;;;;;;;5109578;28;20446;-70
2022/02/08 19:28:09;;;;;;;65.43;4.73;;;;;;;;;;5109223;28;20441;-70
2022/02/08 19:30:39;;;;;;;63.10;4.70;;;;;;;;;;5109985;28;20545;-71
2022/02/08 19:33:13;;;;;;;60.80;4.30;;;;;;;;;;5109204;28;20471;-70
2022/02/08 19:35:53;;;;;;;59.27;3.80;;;;;;;;;;5109222;28;20495;-70
2022/02/08 19:38:29;;;;;;;60.97;3.97;;;;;;;;;;5109118;28;20465;-71
2022/02/08 19:41:04;;;;;;;61.63;4.00;;;;;;;;;;5109483;28;20495;-71
2022/02/08 19:43:36;;;;;;;61.67;3.97;;;;;;;;;;5109196;28;20461;-71
2022/02/08 19:46:08;;;;;;;61.97;4.57;;;;;;;;;;5107623;28;20450;-70
2022/02/08 19:48:42;;;;;;;64.07;4.40;;;;;;;;;;5109073;28;20447;-71
2022/02/08 19:51:11;;;;;;;62.27;4.00;;;;;;;;;;5109119;28;20452;-70
2022/02/08 19:53:42;;;;;;;62.03;4.97;;;;;;;;;;5108715;28;20477;-71
2022/02/08 19:56:28;;;;;;;64.70;4.70;;;;;;;;;;5108564;28;20485;-71
2022/02/08 19:59:06;;;;;;;63.40;4.70;;;;;;;;;;5108751;28;20450;-71
2022/02/08 20:01:37;;;;;;;62.07;4.90;;;;;;;;;;5109003;28;20477;-71
2022/02/08 20:04:17;;;;;;;61.80;5.40;;;;;;;;;;5108577;28;20842;-71
2022/02/08 20:06:47;;;;;;;64.57;5.30;;;;;;;;;;5108857;28;20562;-71
2022/02/08 20:09:20;;;;;;;63.93;5.10;;;;;;;;;;5108439;28;20446;-71
2022/02/08 20:11:53;;;;;;;69.90;5.07;;;;;;;;;;5108606;28;20450;-71
2022/02/08 20:14:26;;;;;;;61.77;4.53;;;;;;;;;;5108458;28;20469;-71
2022/02/08 20:16:58;;;;;;;60.00;4.50;;;;;;;;;;5108418;28;20489;-71
2022/02/08 20:19:30;;;;;;;62.77;5.13;;;;;;;;;;5107644;28;20454;-71
2022/02/08 20:22:07;;;;;;;71.17;4.33;;;;;;;;;;5108207;28;20450;-71
2022/02/08 20:24:42;;;;;;;62.90;5.13;;;;;;;;;;5108538;28;20466;-71
2022/02/08 20:27:34;;;;;;;61.00;5.27;;;;;;;;;;5103623;28;20442;-71
2022/02/08 20:30:08;;;;;;;61.57;4.90;;;;;;;;;;5094845;28;20928;-71
2022/02/08 20:32:40;;;;;;;61.07;4.87;;;;;;;;;;5094455;28;20454;-71
2022/02/08 20:35:11;;;;;;;62.67;5.10;;;;;;;;;;5093538;28;20844;-71
2022/02/08 20:37:49;;;;;;;60.50;4.47;;;;;;;;;;5094312;28;20490;-71
2022/02/08 20:40:28;;;;;;;62.67;5.00;;;;;;;;;;5094670;28;20455;-72
2022/02/08 20:43:09;;;;;;;63.60;5.10;;;;;;;;;;5094421;28;20500;-71
2022/02/08 20:45:41;;;;;;;63.67;4.40;;;;;;;;;;5094487;28;20538;-71
2022/02/08 20:48:11;;;;;;;64.60;4.67;;;;;;;;;;5094069;28;20465;-71
2022/02/08 20:50:42;;;;;;;62.20;5.10;;;;;;;;;;5093298;28;20493;-71
2022/02/08 20:53:35;;;;;;;61.83;5.57;;;;;;;;;;5094169;28;20471;-71
2022/02/08 20:56:11;;;;;;;62.97;5.50;;;;;;;;;;5093758;28;20482;-71
2022/02/08 20:58:53;;;;;;;63.47;5.67;;;;;;;;;;5093530;28;20438;-72
2022/02/08 21:01:40;;;;;;;72.20;6.63;;;;;;;;;;5094272;28;20486;-70
2022/02/08 21:04:27;;;;;;;63.57;6.53;;;;;;;;;;5092778;28;20463;-71
2022/02/08 21:07:04;;;;;;;66.33;6.80;;;;;;;;;;5093663;28;20443;-72
2022/02/08 21:09:39;;;;;;;69.10;6.77;;;;;;;;;;5091355;28;20576;-72
2022/02/08 21:12:41;;;;;;;67.47;7.90;;;;;;;;;;5093654;28;20450;-71
2022/02/08 21:15:13;;;;;;;73.57;8.88;;;;;;;;;;5092097;28;20421;-71
2022/02/08 21:17:45;;;;;;;70.50;6.77;;;;;;;;;;5091781;28;20231;-71
2022/02/08 21:20:17;;;;;;;61.20;5.90;;;;;;;;;;5092732;28;20976;-71
2022/02/08 21:22:48;;;;;;;64.10;5.60;;;;;;;;;;5093126;28;20945;-71
2022/02/08 21:25:33;;;;;;;62.27;5.57;;;;;;;;;;5093375;28;20935;-72
2022/02/08 21:28:05;;;;;;;67.57;8.80;;;;;;;;;;5093484;28;20919;-70